createdAt,value
2019-05-07T00:00:35.708Z,100.00
2019-05-07T00:03:04.523Z,100.00
2019-05-07T00:05:33.344Z,100.00
2019-05-07T00:08:03.055Z,100.00
2019-05-07T00:10:33.091Z,98.79
2019-05-07T00:13:02.306Z,99.00
2019-05-07T00:15:32.762Z,97.50
2019-05-07T00:18:03.248Z,96.63
2019-05-07T00:20:32.710Z,97.11
2019-05-07T00:23:02.942Z,97.90
2019-05-07T00:25:32.759Z,97.87
2019-05-07T00:28:02.754Z,98.64
2019-05-07T00:30:33.163Z,98.80
2019-05-07T00:33:02.785Z,98.54
2019-05-07T00:35:39.041Z,97.98
2019-05-07T00:38:09.227Z,96.82
2019-05-07T00:40:54.709Z,97.37
2019-05-07T00:43:24.926Z,97.73
2019-05-07T00:45:58.145Z,98.42
2019-05-07T00:48:26.744Z,97.56
2019-05-07T00:50:56.865Z,96.99
2019-05-07T00:53:25.420Z,97.26
2019-05-07T00:55:54.072Z,97.08
2019-05-07T00:58:26.538Z,96.84
2019-05-07T01:00:53.263Z,96.67
2019-05-07T01:03:22.310Z,97.00
2019-05-07T01:05:52.702Z,97.06
2019-05-07T01:08:22.516Z,97.00
2019-05-07T01:10:52.913Z,97.01
2019-05-07T01:13:23.474Z,97.19
2019-05-07T01:15:53.190Z,96.50
2019-05-07T01:18:23.316Z,96.09
2019-05-07T01:20:53.303Z,95.46
2019-05-07T01:23:22.848Z,95.49
2019-05-07T01:25:52.584Z,95.90
2019-05-07T01:28:22.290Z,95.09
2019-05-07T01:30:52.781Z,94.85
2019-05-07T01:33:33.195Z,93.58
2019-05-07T01:36:03.562Z,93.48
2019-05-07T01:38:33.211Z,92.46
2019-05-07T01:41:02.836Z,92.71
2019-05-07T01:43:32.206Z,92.99
2019-05-07T01:46:03.001Z,92.15
2019-05-07T01:48:32.376Z,92.71
2019-05-07T01:51:03.373Z,91.33
2019-05-07T01:53:32.356Z,91.79
2019-05-07T01:56:03.248Z,91.04
2019-05-07T01:58:33.096Z,89.94
2019-05-07T02:01:02.747Z,90.47
2019-05-07T02:03:36.281Z,91.06
2019-05-07T02:06:13.202Z,91.73
2019-05-07T02:08:49.246Z,92.06
2019-05-07T02:11:19.474Z,92.12
2019-05-07T02:13:48.101Z,92.27
2019-05-07T02:16:16.657Z,92.79
2019-05-07T02:18:45.368Z,92.45
2019-05-07T02:21:13.998Z,92.74
2019-05-07T02:23:42.775Z,93.22
2019-05-07T02:26:13.288Z,92.10
2019-05-07T02:28:42.673Z,92.65
2019-05-07T02:31:14.858Z,93.01
2019-05-07T02:33:43.343Z,94.37
2019-05-07T02:36:14.193Z,95.11
2019-05-07T02:38:44.466Z,95.09
2019-05-07T02:41:14.873Z,94.96
2019-05-07T02:43:43.417Z,93.98
2019-05-07T02:46:25.563Z,94.07
2019-05-07T02:48:48.344Z,94.06
2019-05-07T02:51:18.782Z,93.15
2019-05-07T02:53:48.966Z,92.29
2019-05-07T02:56:17.493Z,92.35
2019-05-07T02:58:46.079Z,93.60
2019-05-07T03:01:14.685Z,93.83
2019-05-07T03:03:44.918Z,94.87
2019-05-07T03:06:13.883Z,97.11
2019-05-07T03:08:44.016Z,97.85
2019-05-07T03:11:14.084Z,99.36
2019-05-07T03:13:43.495Z,100.00
2019-05-07T03:16:13.255Z,100.00
2019-05-07T03:18:43.800Z,100.00
2019-05-07T03:21:14.038Z,99.70
2019-05-07T03:23:50.087Z,99.01
2019-05-07T03:26:22.888Z,98.34
2019-05-07T03:28:53.648Z,98.01
2019-05-07T03:31:36.448Z,96.25
2019-05-07T03:34:25.594Z,96.06
2019-05-07T03:36:56.685Z,94.70
2019-05-07T03:39:24.978Z,94.49
2019-05-07T03:41:53.540Z,93.98
2019-05-07T03:44:40.086Z,94.43
2019-05-07T03:47:19.528Z,93.89
2019-05-07T03:49:48.644Z,93.52
2019-05-07T03:52:17.219Z,92.67
2019-05-07T03:54:45.760Z,92.33
2019-05-07T03:57:15.788Z,92.17
2019-05-07T03:59:44.639Z,91.93
2019-05-07T04:02:14.254Z,91.58
2019-05-07T04:04:43.490Z,92.34
2019-05-07T04:07:13.906Z,91.27
2019-05-07T04:09:43.717Z,90.60
2019-05-07T04:12:13.330Z,90.66
2019-05-07T04:14:43.160Z,88.88
2019-05-07T04:17:17.310Z,87.70
2019-05-07T04:19:44.123Z,86.50
2019-05-07T04:22:13.418Z,86.14
2019-05-07T04:24:53.265Z,86.64
2019-05-07T04:27:26.078Z,85.65
2019-05-07T04:29:54.685Z,85.40
2019-05-07T04:32:24.984Z,86.32
2019-05-07T04:34:57.942Z,85.74
2019-05-07T04:37:26.429Z,84.59
2019-05-07T04:39:55.094Z,85.00
2019-05-07T04:42:24.486Z,85.11
2019-05-07T04:44:54.147Z,85.31
2019-05-07T04:47:34.498Z,85.88
2019-05-07T04:49:53.824Z,84.76
2019-05-07T04:52:27.124Z,84.75
2019-05-07T04:54:55.722Z,85.86
2019-05-07T04:57:27.351Z,84.68
2019-05-07T04:59:57.782Z,86.20
2019-05-07T05:02:29.282Z,85.79
2019-05-07T05:04:57.981Z,84.90
2019-05-07T05:07:26.688Z,84.80
2019-05-07T05:09:55.396Z,82.85
2019-05-07T05:12:23.887Z,82.30
2019-05-07T05:14:52.544Z,81.82
2019-05-07T05:17:22.451Z,80.96
2019-05-07T05:19:52.505Z,80.06
2019-05-07T05:22:25.557Z,79.12
2019-05-07T05:25:12.287Z,79.33
2019-05-07T05:27:43.007Z,78.56
2019-05-07T05:30:13.419Z,78.67
2019-05-07T05:32:42.484Z,79.13
2019-05-07T05:35:12.605Z,78.81
2019-05-07T05:37:42.950Z,79.15
2019-05-07T05:40:12.630Z,79.21
2019-05-07T05:42:42.938Z,80.59
2019-05-07T05:45:30.007Z,81.18
2019-05-07T05:48:04.637Z,81.05
2019-05-07T05:50:32.982Z,80.68
2019-05-07T05:53:12.295Z,81.36
2019-05-07T05:55:42.828Z,80.63
2019-05-07T05:58:15.755Z,81.15
2019-05-07T06:00:45.996Z,80.73
2019-05-07T06:03:28.277Z,80.28
2019-05-07T06:05:58.502Z,80.42
2019-05-07T06:08:28.744Z,80.50
2019-05-07T06:10:58.942Z,79.94
2019-05-07T06:13:34.977Z,80.06
2019-05-07T06:16:12.536Z,79.39
2019-05-07T06:18:42.855Z,78.03
2019-05-07T06:21:25.063Z,77.52
2019-05-07T06:23:55.221Z,77.64
2019-05-07T06:26:24.249Z,77.56
2019-05-07T06:28:52.875Z,76.87
2019-05-07T06:31:22.228Z,77.35
2019-05-07T06:33:52.335Z,77.10
2019-05-07T06:36:22.025Z,76.72
2019-05-07T06:38:53.109Z,76.31
2019-05-07T06:41:41.870Z,75.87
2019-05-07T06:44:12.705Z,76.04
2019-05-07T06:46:41.927Z,76.59
2019-05-07T06:49:12.620Z,77.78
2019-05-07T06:51:41.966Z,78.07
2019-05-07T06:54:12.851Z,77.86
2019-05-07T06:56:42.125Z,77.35
2019-05-07T06:59:13.021Z,78.18
2019-05-07T07:01:43.317Z,77.43
2019-05-07T07:04:13.708Z,76.47
2019-05-07T07:06:52.372Z,76.47
2019-05-07T07:09:32.916Z,75.81
2019-05-07T07:12:15.016Z,76.12
2019-05-07T07:14:43.668Z,77.46
2019-05-07T07:17:12.916Z,77.85
2019-05-07T07:19:42.773Z,78.49
2019-05-07T07:22:12.960Z,78.41
2019-05-07T07:24:42.512Z,78.48
2019-05-07T07:27:13.178Z,78.07
2019-05-07T07:29:55.379Z,77.75
2019-05-07T07:32:25.613Z,78.00
2019-05-07T07:34:54.507Z,78.53
2019-05-07T07:37:24.774Z,78.50
2019-05-07T07:39:55.018Z,77.84
2019-05-07T07:42:23.743Z,78.26
2019-05-07T07:44:53.940Z,77.69
2019-05-07T07:47:22.623Z,77.71
2019-05-07T07:49:52.572Z,76.39
2019-05-07T07:52:23.008Z,76.41
2019-05-07T07:54:52.897Z,76.71
2019-05-07T07:57:39.456Z,76.08
2019-05-07T08:00:11.821Z,75.25
2019-05-07T08:02:42.402Z,76.09
2019-05-07T08:05:12.532Z,75.60
2019-05-07T08:07:42.589Z,75.38
2019-05-07T08:10:12.858Z,75.75
2019-05-07T08:12:42.255Z,75.56
2019-05-07T08:15:18.200Z,74.29
2019-05-07T08:17:41.958Z,73.91
2019-05-07T08:20:12.802Z,73.12
2019-05-07T08:22:42.326Z,72.46
2019-05-07T08:25:12.481Z,73.08
2019-05-07T08:27:41.949Z,73.94
2019-05-07T08:30:12.932Z,73.51
2019-05-07T08:32:46.257Z,73.68
2019-05-07T08:35:17.699Z,73.57
2019-05-07T08:37:46.309Z,73.72
2019-05-07T08:40:15.033Z,73.88
2019-05-07T08:42:43.697Z,73.49
2019-05-07T08:45:32.465Z,74.42
2019-05-07T08:48:21.655Z,74.53
2019-05-07T08:50:52.411Z,75.36
2019-05-07T08:53:22.467Z,75.35
2019-05-07T08:55:52.649Z,74.99
2019-05-07T08:58:22.363Z,75.95
2019-05-07T09:00:52.360Z,75.22
2019-05-07T09:03:38.865Z,74.42
2019-05-07T09:06:07.494Z,73.91
2019-05-07T09:08:36.057Z,73.83
2019-05-07T09:11:04.672Z,73.24
2019-05-07T09:13:33.386Z,72.83
2019-05-07T09:16:02.514Z,72.39
2019-05-07T09:18:32.292Z,72.35
2019-05-07T09:21:02.209Z,72.51
2019-05-07T09:23:31.919Z,73.21
2019-05-07T09:26:02.689Z,73.18
2019-05-07T09:28:32.859Z,74.53
2019-05-07T09:31:03.122Z,74.77
2019-05-07T09:33:36.394Z,74.54
2019-05-07T09:36:06.898Z,75.43
2019-05-07T09:38:35.471Z,74.96
2019-05-07T09:41:04.238Z,74.53
2019-05-07T09:43:32.794Z,74.92
2019-05-07T09:46:02.668Z,74.93
2019-05-07T09:48:33.623Z,75.27
2019-05-07T09:51:02.314Z,75.21
2019-05-07T09:53:32.143Z,75.56
2019-05-07T09:56:02.179Z,74.83
2019-05-07T09:58:36.577Z,74.25
2019-05-07T10:01:02.083Z,73.40
2019-05-07T10:03:32.411Z,74.11
2019-05-07T10:06:02.207Z,74.75
2019-05-07T10:08:32.565Z,74.86
2019-05-07T10:11:02.711Z,74.76
2019-05-07T10:13:33.266Z,74.90
2019-05-07T10:16:03.819Z,75.78
2019-05-07T10:18:32.598Z,75.55
2019-05-07T10:21:02.500Z,75.69
2019-05-07T10:23:31.422Z,75.16
2019-05-07T10:26:01.787Z,75.43
2019-05-07T10:28:32.041Z,74.99
2019-05-07T10:31:00.698Z,75.08
2019-05-07T10:33:29.360Z,74.59
2019-05-07T10:35:57.992Z,74.94
2019-05-07T10:38:26.617Z,74.78
2019-05-07T10:40:55.290Z,73.46
2019-05-07T10:43:23.983Z,74.10
2019-05-07T10:46:12.640Z,74.87
2019-05-07T10:48:43.046Z,75.25
2019-05-07T10:51:11.525Z,75.05
2019-05-07T10:53:42.324Z,75.33
2019-05-07T10:56:11.824Z,74.93
2019-05-07T10:58:41.784Z,74.83
2019-05-07T11:01:12.060Z,74.24
2019-05-07T11:03:40.695Z,74.68
2019-05-07T11:06:09.316Z,74.98
2019-05-07T11:08:37.980Z,76.43
2019-05-07T11:11:06.626Z,76.38
2019-05-07T11:13:35.156Z,76.43
2019-05-07T11:16:08.221Z,76.49
2019-05-07T11:18:38.476Z,76.18
2019-05-07T11:21:07.102Z,77.62
2019-05-07T11:23:35.704Z,78.36
2019-05-07T11:26:04.333Z,78.79
2019-05-07T11:28:32.959Z,78.59
2019-05-07T11:31:02.101Z,79.04
2019-05-07T11:33:32.552Z,80.38
2019-05-07T11:36:02.085Z,80.68
2019-05-07T11:38:33.381Z,80.70
2019-05-07T11:41:02.321Z,80.95
2019-05-07T11:43:47.872Z,81.60
2019-05-07T11:46:22.214Z,81.88
2019-05-07T11:49:07.913Z,81.62
2019-05-07T11:51:42.613Z,82.16
2019-05-07T11:54:12.977Z,83.17
2019-05-07T11:56:42.439Z,83.54
2019-05-07T11:59:13.086Z,83.11
2019-05-07T12:01:47.695Z,83.34
2019-05-07T12:04:16.052Z,83.82
2019-05-07T12:06:44.612Z,84.26
2019-05-07T12:09:13.301Z,84.04
2019-05-07T12:11:42.628Z,84.74
2019-05-07T12:14:12.368Z,85.00
2019-05-07T12:16:42.629Z,84.98
2019-05-07T12:19:12.617Z,85.04
2019-05-07T12:21:42.182Z,84.98
2019-05-07T12:24:12.939Z,85.56
2019-05-07T12:26:42.492Z,85.64
2019-05-07T12:29:11.838Z,85.59
2019-05-07T12:31:57.471Z,85.73
2019-05-07T12:34:31.898Z,85.78
2019-05-07T12:37:01.728Z,86.71
2019-05-07T12:39:31.847Z,87.48
2019-05-07T12:42:00.739Z,87.36
2019-05-07T12:44:29.257Z,87.39
2019-05-07T12:46:57.895Z,87.77
2019-05-07T12:49:26.460Z,88.26
2019-05-07T12:52:05.786Z,88.17
2019-05-07T12:54:41.933Z,88.03
2019-05-07T12:57:11.786Z,88.25
2019-05-07T12:59:42.529Z,88.24
2019-05-07T13:02:21.846Z,87.61
2019-05-07T13:04:45.936Z,88.14
2019-05-07T13:07:24.802Z,88.71
2019-05-07T13:09:54.077Z,87.52
2019-05-07T13:12:22.712Z,88.06
2019-05-07T13:14:52.215Z,88.46
2019-05-07T13:17:22.386Z,88.23
2019-05-07T13:19:52.510Z,88.52
2019-05-07T13:22:21.985Z,89.31
2019-05-07T13:24:52.729Z,88.71
2019-05-07T13:27:21.145Z,88.74
2019-05-07T13:29:49.979Z,88.98
2019-05-07T13:32:19.621Z,88.70
2019-05-07T13:34:48.260Z,89.61
2019-05-07T13:37:18.537Z,88.77
2019-05-07T13:39:49.134Z,89.16
2019-05-07T13:42:36.127Z,89.62
2019-05-07T13:45:11.973Z,89.36
2019-05-07T13:47:41.086Z,89.71
2019-05-07T13:50:11.883Z,90.23
2019-05-07T13:52:43.128Z,91.30
2019-05-07T13:55:12.842Z,91.28
2019-05-07T13:57:41.812Z,91.60
2019-05-07T14:00:13.313Z,92.15
2019-05-07T14:02:42.246Z,92.53
2019-05-07T14:05:13.991Z,93.59
2019-05-07T14:07:43.070Z,94.01
2019-05-07T14:10:12.719Z,94.26
2019-05-07T14:12:42.532Z,93.56
2019-05-07T14:15:12.580Z,94.40
2019-05-07T14:17:41.432Z,93.40
2019-05-07T14:20:12.756Z,93.91
2019-05-07T14:22:42.523Z,94.68
2019-05-07T14:25:11.884Z,95.24
2019-05-07T14:27:42.694Z,94.92
2019-05-07T14:30:12.980Z,94.89
2019-05-07T14:32:46.364Z,95.14
2019-05-07T14:35:16.790Z,94.81
2019-05-07T14:37:53.374Z,94.81
2019-05-07T14:40:22.317Z,93.99
2019-05-07T14:43:03.567Z,93.60
2019-05-07T14:45:32.810Z,93.76
2019-05-07T14:48:02.912Z,94.07
2019-05-07T14:50:33.019Z,94.40
2019-05-07T14:53:02.699Z,94.72
2019-05-07T14:55:32.487Z,94.70
2019-05-07T14:58:02.319Z,95.52
2019-05-07T15:00:31.054Z,94.79
2019-05-07T15:03:01.806Z,94.96
2019-05-07T15:05:30.053Z,96.32
2019-05-07T15:08:08.449Z,96.23
2019-05-07T15:10:29.180Z,97.19
2019-05-07T15:12:57.831Z,97.34
2019-05-07T15:15:26.624Z,97.98
2019-05-07T15:17:57.645Z,97.98
2019-05-07T15:20:26.805Z,97.60
2019-05-07T15:23:06.076Z,95.98
2019-05-07T15:25:34.802Z,96.49
2019-05-07T15:28:03.546Z,96.96
2019-05-07T15:30:33.818Z,96.85
2019-05-07T15:33:02.460Z,96.40
2019-05-07T15:35:32.058Z,96.11
2019-05-07T15:38:02.486Z,95.04
2019-05-07T15:40:32.963Z,94.45
2019-05-07T15:43:02.236Z,93.96
2019-05-07T15:45:31.031Z,93.18
2019-05-07T15:48:01.990Z,93.19
2019-05-07T15:50:32.063Z,93.41
2019-05-07T15:53:08.020Z,92.69
2019-05-07T15:55:36.690Z,92.16
2019-05-07T15:58:05.325Z,91.29
2019-05-07T16:00:35.547Z,91.42
2019-05-07T16:03:05.783Z,90.74
2019-05-07T16:05:34.410Z,89.90
2019-05-07T16:08:04.227Z,90.61
2019-05-07T16:10:32.855Z,90.53
2019-05-07T16:13:01.475Z,89.96
2019-05-07T16:15:32.043Z,90.29
2019-05-07T16:18:05.123Z,90.50
2019-05-07T16:20:33.691Z,90.37
2019-05-07T16:23:14.348Z,89.73
2019-05-07T16:25:33.124Z,89.55
2019-05-07T16:28:04.593Z,89.45
2019-05-07T16:30:32.463Z,89.84
2019-05-07T16:33:02.149Z,89.64
2019-05-07T16:35:32.082Z,89.60
2019-05-07T16:38:01.190Z,89.90
2019-05-07T16:40:32.090Z,90.58
2019-05-07T16:43:00.226Z,90.58
2019-05-07T16:45:28.942Z,90.67
2019-05-07T16:48:00.384Z,90.87
2019-05-07T16:50:27.812Z,90.74
2019-05-07T16:52:56.457Z,91.16
2019-05-07T16:55:26.635Z,91.06
2019-05-07T16:57:56.766Z,91.36
2019-05-07T17:00:31.739Z,91.30
2019-05-07T17:03:02.173Z,91.22
2019-05-07T17:05:32.098Z,90.71
2019-05-07T17:08:02.614Z,90.26
2019-05-07T17:10:31.771Z,90.24
2019-05-07T17:13:02.752Z,89.81
2019-05-07T17:15:30.889Z,89.25
2019-05-07T17:17:59.572Z,89.20
2019-05-07T17:20:28.315Z,89.15
2019-05-07T17:22:57.440Z,89.04
2019-05-07T17:25:38.550Z,89.08
2019-05-07T17:28:12.425Z,89.04
2019-05-07T17:30:42.067Z,88.95
2019-05-07T17:33:12.772Z,88.77
2019-05-07T17:35:42.338Z,88.89
2019-05-07T17:38:12.873Z,88.46
2019-05-07T17:40:42.392Z,88.24
2019-05-07T17:43:12.322Z,87.90
2019-05-07T17:45:42.802Z,87.57
2019-05-07T17:48:12.291Z,87.57
2019-05-07T17:51:01.138Z,86.98
2019-05-07T17:53:31.861Z,86.85
2019-05-07T17:56:02.004Z,86.66
2019-05-07T17:58:32.406Z,86.63
2019-05-07T18:01:02.550Z,86.38
2019-05-07T18:03:38.865Z,86.31
2019-05-07T18:06:09.262Z,86.41
2019-05-07T18:08:37.747Z,85.88
2019-05-07T18:11:20.199Z,86.25
2019-05-07T18:13:36.919Z,85.62
2019-05-07T18:16:07.222Z,85.91
2019-05-07T18:18:35.825Z,85.83
2019-05-07T18:21:05.264Z,85.58
2019-05-07T18:23:33.910Z,85.63
2019-05-07T18:26:02.947Z,85.52
2019-05-07T18:28:32.532Z,85.19
2019-05-07T18:31:02.140Z,85.14
2019-05-07T18:33:33.617Z,84.58
2019-05-07T18:36:02.866Z,85.04
2019-05-07T18:38:32.985Z,84.87
2019-05-07T18:41:02.611Z,85.21
2019-05-07T18:43:33.169Z,85.11
2019-05-07T18:46:02.394Z,84.35
2019-05-07T18:48:31.199Z,84.17
2019-05-07T18:50:59.681Z,84.83
2019-05-07T18:53:28.173Z,84.39
2019-05-07T18:55:56.937Z,84.34
2019-05-07T18:58:25.572Z,84.52
2019-05-07T19:00:55.770Z,84.13
2019-05-07T19:03:25.458Z,84.12
2019-05-07T19:05:54.561Z,83.61
2019-05-07T19:08:23.244Z,83.84
2019-05-07T19:10:52.252Z,83.65
2019-05-07T19:13:22.228Z,83.42
2019-05-07T19:15:53.033Z,83.57
2019-05-07T19:18:22.790Z,83.26
2019-05-07T19:20:52.928Z,82.92
2019-05-07T19:23:22.286Z,83.23
2019-05-07T19:25:52.288Z,83.20
2019-05-07T19:28:22.464Z,83.06
2019-05-07T19:30:52.761Z,83.14
2019-05-07T19:33:26.506Z,83.14
2019-05-07T19:35:52.935Z,83.29
2019-05-07T19:38:21.750Z,83.91
2019-05-07T19:40:52.670Z,84.04
2019-05-07T19:43:20.900Z,84.29
2019-05-07T19:45:49.552Z,84.21
2019-05-07T19:48:18.272Z,83.84
2019-05-07T19:50:46.909Z,84.65
2019-05-07T19:53:15.550Z,84.45
2019-05-07T19:56:02.209Z,84.52
2019-05-07T19:58:32.704Z,84.58
2019-05-07T20:01:02.115Z,84.33
2019-05-07T20:03:31.133Z,84.22
2019-05-07T20:06:02.256Z,83.92
2019-05-07T20:08:31.929Z,84.04
2019-05-07T20:11:02.690Z,83.92
2019-05-07T20:13:32.405Z,83.83
2019-05-07T20:16:08.846Z,83.65
2019-05-07T20:18:37.328Z,82.56
2019-05-07T20:21:06.061Z,82.74
2019-05-07T20:23:34.716Z,82.81
2019-05-07T20:26:03.881Z,83.13
2019-05-07T20:28:32.875Z,82.81
2019-05-07T20:31:01.412Z,83.06
2019-05-07T20:33:29.907Z,83.10
2019-05-07T20:35:58.537Z,82.56
2019-05-07T20:38:27.300Z,82.53
2019-05-07T20:40:55.966Z,82.36
2019-05-07T20:43:24.527Z,82.75
2019-05-07T20:45:53.214Z,82.22
2019-05-07T20:48:22.647Z,82.50
2019-05-07T20:50:52.037Z,82.36
2019-05-07T20:53:22.472Z,82.14
2019-05-07T20:55:53.019Z,82.46
2019-05-07T20:58:22.208Z,82.30
2019-05-07T21:00:52.594Z,82.05
2019-05-07T21:03:23.798Z,81.84
2019-05-07T21:05:53.220Z,81.67
2019-05-07T21:08:22.760Z,81.96
2019-05-07T21:10:53.658Z,82.18
2019-05-07T21:13:30.928Z,82.56
2019-05-07T21:15:52.840Z,82.34
2019-05-07T21:18:23.338Z,82.05
2019-05-07T21:20:52.937Z,81.92
2019-05-07T21:23:23.017Z,81.72
2019-05-07T21:25:52.868Z,81.88
2019-05-07T21:28:21.899Z,81.74
2019-05-07T21:30:52.193Z,81.17
2019-05-07T21:33:22.938Z,81.11
2019-05-07T21:35:52.365Z,81.19
2019-05-07T21:38:22.317Z,81.06
2019-05-07T21:40:51.268Z,80.87
2019-05-07T21:43:22.145Z,80.83
2019-05-07T21:45:50.228Z,80.76
2019-05-07T21:48:18.860Z,81.05
2019-05-07T21:50:47.392Z,80.88
2019-05-07T21:53:17.582Z,81.05
2019-05-07T21:56:01.676Z,81.23
2019-05-07T21:58:25.772Z,80.96
2019-05-07T22:00:57.901Z,80.66
2019-05-07T22:03:26.564Z,80.75
2019-05-07T22:05:55.184Z,80.54
2019-05-07T22:08:23.824Z,80.72
2019-05-07T22:10:52.348Z,81.04
2019-05-07T22:13:22.112Z,81.19
2019-05-07T22:15:52.211Z,81.25
2019-05-07T22:18:22.595Z,81.27
2019-05-07T22:20:52.214Z,81.24
2019-05-07T22:23:24.490Z,81.38
2019-05-07T22:25:51.393Z,81.51
2019-05-07T22:28:21.966Z,81.67
2019-05-07T22:31:02.315Z,82.10
2019-05-07T22:33:35.996Z,82.25
2019-05-07T22:36:04.692Z,82.37
2019-05-07T22:38:33.216Z,82.56
2019-05-07T22:41:02.218Z,82.36
2019-05-07T22:43:31.867Z,82.41
2019-05-07T22:46:00.555Z,82.66
2019-05-07T22:48:29.049Z,82.89
2019-05-07T22:50:57.667Z,82.46
2019-05-07T22:53:26.504Z,82.75
2019-05-07T22:55:54.997Z,82.12
2019-05-07T22:58:28.114Z,81.69
2019-05-07T23:01:13.736Z,82.31
2019-05-07T23:03:42.971Z,82.38
2019-05-07T23:06:12.391Z,82.55
2019-05-07T23:08:42.342Z,82.90
2019-05-07T23:11:12.335Z,82.47
2019-05-07T23:13:42.802Z,83.17
2019-05-07T23:16:12.555Z,83.06
2019-05-07T23:18:42.881Z,83.20
2019-05-07T23:21:11.786Z,83.38
2019-05-07T23:23:42.185Z,83.30
2019-05-07T23:26:14.296Z,83.27
2019-05-07T23:28:41.891Z,83.57
2019-05-07T23:31:12.058Z,83.59
2019-05-07T23:33:40.858Z,84.10
2019-05-07T23:36:09.636Z,84.30
2019-05-07T23:38:38.296Z,84.57
2019-05-07T23:41:23.458Z,84.82
2019-05-07T23:44:13.148Z,84.75
2019-05-07T23:46:44.439Z,84.46
2019-05-07T23:49:12.568Z,84.27
2019-05-07T23:51:42.117Z,84.50
2019-05-07T23:54:12.131Z,84.77
2019-05-07T23:56:42.727Z,85.04
2019-05-07T23:59:14.509Z,84.30
